KBDN

Bend Municipal Airport

Bend, Oregon, USA
METAR KBDN 241215Z AUTO 18010KT 5SM -SN FEW010 FEW016 SCT023 00/M04 A2998 RMK AO2
Observed Flight Rules
Feb-24 @ 12:15 UTC (7 minutes ago) Marginal Visual Flight Rules
Wind Visibility Clouds Conditions
180° at 10 knots 5 miles
  • Few at 1,000' AGL
  • Few at 1,600' AGL
  • Scattered at 2,300' AGL
  • Light Snow
Temperatures Readings
Current 0°C / 32°F
Dewpoint -4°C / 25°F
Humidity 75%
Altimeter 29.98" Hg
Pressure 1015 hPa
Elevation 1055
METAR KBDN 241215Z AUTO 18010KT 5SM -SN FEW010 FEW016 SCT023 00/M04 A2998 RMK AO2
Observed Flight Rules
Feb-24 @ 12:15 UTC
(7 minutes ago)
MVFR
Wind Visibility
180° at 10 knots 5 miles
Clouds
  • Few at 1,000' AGL
  • Few at 1,600' AGL
  • Scattered at 2,300' AGL
Conditions
  • Light Snow
Temperature Dewpoint
0°C / 32°F -4°C / 25°F
Humidity Altimeter Pressure
75% 29.98" Hg 1015 hPa